Huvudsida
METAR-TAF:

METAR-TAF

Flygplatser :

Tete, Moçambique

latitud: 16-06S, longitud: 033-38E, höjd: 160 m

Aktuellt väderrapport

Denna rapport gjordes för 5 minuter sedan, klockan 13:00 UTC
Vind 9 kt från syd
Temperatur 32°C
Fuktighet 29%
Tryck 1015 hPa
Sikt 10 km eller mer
Inga moln under 1 500 m eller inga cumulonimbus

METAR: FQTT 191300Z 19009KT CAVOK 32/12 Q1015

Tid: 15:05 (13:05 UTC)

Väderprognos

Denna rapport gjordes för 3 timmar och 5 minuter sedan, klockan 10:00 UTC
Prognos gäller från 19 kl. 12 UTC till 20 kl. 12 UTC
Vind 10 kt från syd/sydost
Sikt 10 km eller mer
Inga moln under 1 500 m eller inga cumulonimbus
Blir
från 20 kl. 00 UTC till 20 kl. 02 UTC
Vind 2 kt varierande vindriktning
Blir
från 20 kl. 06 UTC till 20 kl. 08 UTC
Vind 6 kt från syd/sydost

TAF: FQTT 191000Z 1912/2012 16010KT CAVOK TX33/1913Z TN19/2002Z BECMG 2000/2002 VRB02KT BECMG 2006/2008 16006KT

Aktuella väderrapporter och prognoser från 4000 flygplatser (METAR- och TAF-rapporter).

De tillgängliga stationerna syns som gula och röda prickar på kartan.

För musen över prickarna för att se namnen på stationerna.

Klicka sedan för att få väderrapporter och prognoser.

För att ändra kartan: Klicka på de gröna knapparna med ett svart kors på för att zooma in; den gröna knappen med ett streck på för att zooma ut; eller på de gröna pilarna för angränsande kartor.


METAR-TAF: